Time;durP1;ratioP1;P1;durP2;ratioP2;P2;SDS_P1;SDS_P2;PMS_P1;PMS_P2;Temp;Humidity;BMP_temperature;BMP_pressure;BME280_temperature;BME280_humidity;BME280_pressure;Samples;Min_cycle;Max_cycle;Signal;HPM_P1;HPM_P2
2023/10/09 00:01:05;;;;;;;27.20;15.18;;;;;;;13.76;100.00;101885.31;5092064;28;20031;-87
2023/10/09 00:03:31;;;;;;;28.80;15.40;;;;;;;13.77;100.00;101889.69;5092076;28;20024;-87
2023/10/09 00:05:57;;;;;;;28.57;15.27;;;;;;;13.80;100.00;101875.66;5091706;28;20468;-87
2023/10/09 00:08:32;;;;;;;25.15;15.30;;;;;;;13.86;100.00;101871.22;5092093;28;20024;-87
2023/10/09 00:11:13;;;;;;;21.25;14.02;;;;;;;13.89;100.00;101873.53;5092145;28;20028;-86
2023/10/09 00:13:48;;;;;;;23.95;14.40;;;;;;;13.88;100.00;101863.69;5077425;28;20031;-86
2023/10/09 00:16:32;;;;;;;26.67;14.75;;;;;;;13.91;100.00;101862.44;5092421;28;20045;-87
2023/10/09 00:19:20;;;;;;;24.97;14.77;;;;;;;13.95;100.00;101858.19;5091785;28;20032;-86
2023/10/09 00:21:47;;;;;;;30.38;15.40;;;;;;;13.99;100.00;101843.91;5091962;28;20028;-87
2023/10/09 00:24:13;;;;;;;24.08;14.32;;;;;;;14.01;100.00;101860.06;5091796;28;20388;-87
2023/10/09 00:26:48;;;;;;;25.70;14.75;;;;;;;14.04;100.00;101859.66;5091537;28;20048;-86
2023/10/09 00:29:34;;;;;;;23.63;13.57;;;;;;;14.11;100.00;101859.63;5092120;28;20038;-86
2023/10/09 00:34:44;;;;;;;23.83;13.73;;;;;;;14.20;100.00;101847.44;5081011;28;20434;-87
2023/10/09 00:37:16;;;;;;;25.70;14.37;;;;;;;14.23;100.00;101837.97;5095360;28;20028;-86
2023/10/09 00:39:48;;;;;;;26.45;13.75;;;;;;;14.24;100.00;101831.47;5095679;28;20520;-86
2023/10/09 00:42:15;;;;;;;23.42;14.15;;;;;;;14.27;100.00;101831.88;5095589;28;20590;-87
2023/10/09 00:44:48;;;;;;;22.10;13.57;;;;;;;14.27;100.00;101826.41;5095218;28;20471;-86
2023/10/09 00:47:21;;;;;;;24.20;13.50;;;;;;;14.28;100.00;101828.09;5079554;28;20028;-87
2023/10/09 00:50:08;;;;;;;24.17;13.97;;;;;;;14.33;100.00;101824.72;5095496;28;20472;-86
2023/10/09 00:52:50;;;;;;;25.90;14.52;;;;;;;14.30;100.00;101825.16;5095114;28;20032;-87
2023/10/09 00:55:37;;;;;;;24.48;13.85;;;;;;;14.36;100.00;101829.72;5080657;28;20140;-86
2023/10/09 00:58:09;;;;;;;21.60;13.80;;;;;;;14.41;100.00;101842.72;5080493;28;20035;-86
2023/10/09 01:08:32;;;;;;;23.73;13.45;;;;;;;14.47;100.00;101831.78;5095261;28;20131;-87
2023/10/09 01:11:21;;;;;;;25.80;13.23;;;;;;;14.47;100.00;101833.69;5094999;28;20035;-87
2023/10/09 01:16:18;;;;;;;23.77;13.33;;;;;;;14.50;100.00;101828.63;5096104;28;20039;-87
2023/10/09 01:18:46;;;;;;;21.90;12.75;;;;;;;14.48;100.00;101833.47;5094350;28;20475;-86
2023/10/09 01:21:14;;;;;;;22.42;13.77;;;;;;;14.50;100.00;101831.34;5095146;28;20024;-86
2023/10/09 01:24:08;;;;;;;22.63;12.02;;;;;;;14.51;100.00;101829.44;5094519;28;20046;-86
2023/10/09 01:26:49;;;;;;;21.67;13.35;;;;;;;14.51;100.00;101830.31;5094404;28;20105;-87
2023/10/09 01:29:19;;;;;;;20.50;12.13;;;;;;;14.55;100.00;101830.69;5095480;28;20410;-86
2023/10/09 01:32:06;;;;;;;23.50;12.65;;;;;;;14.52;100.00;101837.41;5094062;28;20039;-87
2023/10/09 01:34:41;;;;;;;20.55;12.00;;;;;;;14.51;100.00;101827.56;5080027;28;20040;-87
2023/10/09 01:37:28;;;;;;;24.58;12.73;;;;;;;14.53;100.00;101846.47;5094644;28;20024;-86
2023/10/09 01:39:58;;;;;;;22.83;12.18;;;;;;;14.54;100.00;101842.66;5094239;28;20052;-87
2023/10/09 01:42:44;;;;;;;23.03;11.97;;;;;;;14.56;100.00;101843.31;5094334;28;20418;-86
2023/10/09 01:47:56;;;;;;;20.35;11.48;;;;;;;14.52;100.00;101834.69;5094483;28;20480;-86
2023/10/09 01:50:30;;;;;;;24.58;12.88;;;;;;;14.53;100.00;101832.81;5093772;28;20032;-87
2023/10/09 01:52:56;;;;;;;20.73;12.07;;;;;;;14.51;100.00;101838.50;5093957;28;20157;-87
2023/10/09 01:55:29;;;;;;;22.00;11.87;;;;;;;14.52;100.00;101831.97;5093887;28;20040;-87
2023/10/09 01:58:01;;;;;;;19.90;12.13;;;;;;;14.50;100.00;101831.34;5078206;28;20467;-86
2023/10/09 02:00:29;;;;;;;19.60;12.35;;;;;;;14.50;100.00;101823.16;5077842;28;20032;-87
2023/10/09 02:02:54;;;;;;;21.48;12.35;;;;;;;14.48;100.00;101833.47;5093571;28;20032;-87
2023/10/09 02:05:25;;;;;;;19.90;11.93;;;;;;;14.46;100.00;101827.38;5093286;28;20031;-87
2023/10/09 02:07:51;;;;;;;20.08;11.55;;;;;;;14.44;100.00;101832.22;5093980;28;20036;-86
2023/10/09 02:13:06;;;;;;;17.63;11.73;;;;;;;14.42;100.00;101828.84;5093645;28;20040;-87
2023/10/09 02:23:51;;;;;;;23.42;12.30;;;;;;;14.41;100.00;101819.00;5094407;28;20032;-86
2023/10/09 02:26:25;;;;;;;27.73;13.23;;;;;;;14.39;100.00;101812.91;5079811;28;20056;-86
2023/10/09 02:29:03;;;;;;;22.52;12.65;;;;;;;14.39;100.00;101818.38;5093686;28;20082;-86
2023/10/09 02:31:41;;;;;;;20.90;11.82;;;;;;;14.38;100.00;101814.81;5078164;28;20034;-87
2023/10/09 02:34:08;;;;;;;19.95;11.98;;;;;;;14.36;100.00;101805.16;5093797;28;20024;-87
2023/10/09 02:36:49;;;;;;;20.45;11.60;;;;;;;14.34;100.00;101799.09;5092685;28;20035;-86
2023/10/09 02:39:25;;;;;;;19.10;11.13;;;;;;;14.32;100.00;101793.00;5094081;28;20032;-86
2023/10/09 02:42:42;;;;;;;22.55;12.30;;;;;;;14.30;100.00;101793.22;5094062;28;20031;-87
2023/10/09 02:44:46;;;;;;;19.83;11.98;;;;;;;14.29;100.00;101794.28;5090259;28;20552;-87
2023/10/09 02:47:20;;;;;;;21.20;12.20;;;;;;;14.29;100.00;101780.63;5094362;28;20047;-86
2023/10/09 02:49:50;;;;;;;23.45;12.10;;;;;;;14.29;100.00;101785.25;5093021;28;20075;-86
2023/10/09 02:52:19;;;;;;;20.77;11.87;;;;;;;14.28;100.00;101784.41;5093818;28;20034;-86
2023/10/09 02:54:47;;;;;;;20.42;12.02;;;;;;;14.30;100.00;101786.94;5076329;28;20384;-87
2023/10/09 02:57:21;;;;;;;20.02;12.55;;;;;;;14.30;100.00;101793.22;5076047;28;20028;-86
2023/10/09 02:59:51;;;;;;;22.20;11.75;;;;;;;14.28;100.00;101787.16;5094459;28;20032;-86
2023/10/09 03:02:19;;;;;;;22.17;12.45;;;;;;;14.28;100.00;101798.06;5076301;28;20498;-87
2023/10/09 03:04:45;;;;;;;23.33;12.20;;;;;;;14.29;100.00;101796.16;5076265;28;20085;-87
2023/10/09 03:07:13;;;;;;;18.52;11.80;;;;;;;14.30;100.00;101795.13;5075627;28;20032;-86
2023/10/09 03:09:41;;;;;;;17.80;12.18;;;;;;;14.27;100.00;101792.81;5092728;28;20106;-86
2023/10/09 03:12:11;;;;;;;19.30;12.15;;;;;;;14.28;100.00;101791.78;5092691;28;20050;-86
2023/10/09 03:14:41;;;;;;;23.47;12.47;;;;;;;14.29;100.00;101791.56;5092624;28;20032;-86
2023/10/09 03:17:11;;;;;;;24.30;12.48;;;;;;;14.29;100.00;101790.69;5092607;28;20028;-86
2023/10/09 03:19:37;;;;;;;23.25;12.55;;;;;;;14.28;100.00;101786.31;5093642;28;20080;-86
2023/10/09 03:22:10;;;;;;;20.17;11.23;;;;;;;14.32;100.00;101780.19;5092803;28;20020;-86
2023/10/09 03:24:36;;;;;;;19.30;11.80;;;;;;;14.32;100.00;101765.69;5092764;28;20047;-86
2023/10/09 03:27:08;;;;;;;21.53;11.93;;;;;;;14.29;100.00;101766.13;5092251;28;20488;-87
2023/10/09 03:29:33;;;;;;;20.65;11.98;;;;;;;14.28;100.00;101761.75;5092454;28;20030;-87
2023/10/09 03:32:00;;;;;;;22.13;12.57;;;;;;;14.27;100.00;101760.91;5092151;28;20126;-87
2023/10/09 03:34:28;;;;;;;24.83;11.73;;;;;;;14.24;100.00;101760.50;5092101;28;20785;-86
2023/10/09 03:37:03;;;;;;;22.95;12.85;;;;;;;14.23;100.00;101764.28;5092876;28;20024;-86
2023/10/09 03:42:00;;;;;;;22.55;12.40;;;;;;;14.19;100.00;101755.69;5093738;28;20123;-87
2023/10/09 03:44:28;;;;;;;21.23;12.05;;;;;;;14.18;100.00;101749.38;5092285;28;20518;-86
2023/10/09 03:46:55;;;;;;;21.67;12.80;;;;;;;14.17;100.00;101745.00;5092866;28;20074;-86
2023/10/09 03:49:23;;;;;;;21.60;12.65;;;;;;;14.18;100.00;101754.84;5075544;28;20480;-86
2023/10/09 03:51:51;;;;;;;21.73;13.27;;;;;;;14.18;100.00;101754.84;5092752;28;20115;-87
2023/10/09 03:54:20;;;;;;;22.83;13.05;;;;;;;14.18;100.00;101751.28;5092469;28;20032;-87
2023/10/09 03:56:49;;;;;;;21.70;12.85;;;;;;;14.16;100.00;101751.50;5092427;28;20036;-87
2023/10/09 03:59:19;;;;;;;22.53;12.93;;;;;;;14.14;100.00;101744.59;5092234;28;20032;-87
2023/10/09 04:01:46;;;;;;;21.90;12.60;;;;;;;14.12;100.00;101749.44;5091995;28;20476;-87
2023/10/09 04:04:14;;;;;;;22.25;12.73;;;;;;;14.12;100.00;101743.97;5091736;28;20028;-86
2023/10/09 04:06:42;;;;;;;22.75;12.95;;;;;;;14.13;100.00;101753.81;5095154;28;20127;-87
2023/10/09 04:12:19;;;;;;;21.53;12.90;;;;;;;14.13;100.00;101751.94;5097734;28;20048;-87
2023/10/09 04:15:24;;;;;;;20.23;13.38;;;;;;;14.14;100.00;101755.50;5095877;28;20032;-87
2023/10/09 04:17:39;;;;;;;20.58;11.95;;;;;;;14.13;100.00;101762.00;5094080;28;20379;-87
2023/10/09 04:22:59;;;;;;;26.77;13.20;;;;;;;14.13;100.00;101742.91;5095626;28;20488;-87
2023/10/09 04:25:40;;;;;;;20.07;13.10;;;;;;;14.16;100.00;101732.41;5095600;28;20090;-87
2023/10/09 04:28:11;;;;;;;23.85;13.35;;;;;;;14.13;100.00;101727.38;5095761;28;20035;-87
2023/10/09 04:30:47;;;;;;;21.92;13.65;;;;;;;14.14;100.00;101737.25;5097036;28;20037;-86
2023/10/09 04:38:55;;;;;;;19.37;13.40;;;;;;;14.19;100.00;101777.53;5097551;28;20353;-87
2023/10/09 04:44:35;;;;;;;21.73;12.82;;;;;;;14.18;100.00;101781.31;5091060;28;20055;-87
2023/10/09 05:00:35;;;;;;;22.40;12.90;;;;;;;14.21;100.00;101761.78;5095597;28;20044;-87
2023/10/09 05:03:02;;;;;;;23.35;13.52;;;;;;;14.24;100.00;101760.50;5080863;28;20115;-87
2023/10/09 05:08:54;;;;;;;20.98;13.02;;;;;;;14.26;100.00;101764.69;5096374;28;20036;-86
2023/10/09 05:11:15;;;;;;;21.23;13.20;;;;;;;14.26;100.00;101766.56;5094529;28;20040;-86
2023/10/09 05:13:44;;;;;;;22.88;13.05;;;;;;;14.23;100.00;101765.09;5094993;28;20032;-87
2023/10/09 05:16:33;;;;;;;26.85;14.00;;;;;;;14.26;100.00;101782.94;5094426;28;20057;-86
2023/10/09 05:19:28;;;;;;;21.53;13.07;;;;;;;14.27;100.00;101779.19;5097080;28;20045;-86
2023/10/09 05:21:58;;;;;;;21.80;13.18;;;;;;;14.29;100.00;101769.72;5095398;28;20036;-87
2023/10/09 05:24:28;;;;;;;24.45;13.57;;;;;;;14.29;100.00;101777.91;5094469;28;20028;-86
2023/10/09 05:27:17;;;;;;;21.38;13.52;;;;;;;14.32;100.00;101785.66;5078628;28;20559;-87
2023/10/09 05:30:24;;;;;;;26.40;13.85;;;;;;;14.34;100.00;101778.06;5095346;28;20044;-87
2023/10/09 05:32:54;;;;;;;24.77;13.80;;;;;;;14.38;100.00;101781.22;5094566;28;20468;-87
2023/10/09 05:35:39;;;;;;;29.73;14.10;;;;;;;14.37;100.00;101794.03;5093698;28;20066;-87
2023/10/09 05:38:15;;;;;;;25.27;13.77;;;;;;;14.38;100.00;101801.16;5094511;28;20036;-87
2023/10/09 05:40:43;;;;;;;25.17;13.40;;;;;;;14.37;100.00;101804.94;5078597;28;20027;-86
2023/10/09 05:44:21;;;;;;;25.35;13.68;;;;;;;14.35;100.00;101800.75;5077382;28;20028;-87
2023/10/09 05:46:16;;;;;;;25.40;13.80;;;;;;;14.37;100.00;101813.13;5095498;28;20036;-87
2023/10/09 05:51:12;;;;;;;23.17;14.27;;;;;;;14.38;100.00;101803.06;5095306;28;20464;-87
2023/10/09 05:54:12;;;;;;;27.27;14.80;;;;;;;14.41;100.00;101793.59;5094008;28;20042;-86
2023/10/09 06:04:54;;;;;;;25.77;14.23;;;;;;;14.48;100.00;101836.22;5094987;28;20090;-86
2023/10/09 06:07:24;;;;;;;31.15;15.30;;;;;;;14.50;100.00;101836.00;5093156;28;20110;-87
2023/10/09 06:09:52;;;;;;;25.75;14.63;;;;;;;14.51;100.00;101833.03;5061957;28;20490;-87
2023/10/09 06:12:33;;;;;;;26.05;14.95;;;;;;;14.52;100.00;101834.69;5093527;28;20028;-87
2023/10/09 06:17:51;;;;;;;25.40;14.17;;;;;;;14.55;100.00;101833.41;5095152;28;20150;-87
2023/10/09 06:23:15;;;;;;;23.13;15.02;;;;;;;14.52;100.00;101815.56;5094729;28;20097;-86
2023/10/09 06:25:51;;;;;;;26.13;15.77;;;;;;;14.53;100.00;101820.00;5094521;28;20067;-87
2023/10/09 06:28:32;;;;;;;30.45;16.23;;;;;;;14.56;100.00;101816.00;5092411;28;20027;-87
2023/10/09 06:31:16;;;;;;;25.70;14.87;;;;;;;14.57;100.00;101810.31;5078000;28;20491;-87
2023/10/09 06:34:07;;;;;;;30.15;15.93;;;;;;;14.61;100.00;101827.13;5093225;28;20035;-86
2023/10/09 06:36:31;;;;;;;30.00;15.95;;;;;;;14.63;100.00;101827.75;5092542;28;20114;-87
2023/10/09 06:39:50;;;;;;;32.95;16.80;;;;;;;14.67;100.00;101828.97;5076754;28;20031;-86
2023/10/09 06:41:45;;;;;;;27.95;15.73;;;;;;;14.70;100.00;101834.03;5078923;28;20040;-86
2023/10/09 06:44:51;;;;;;;27.13;16.47;;;;;;;14.72;100.00;101839.25;5092591;28;20028;-86
2023/10/09 06:46:59;;;;;;;28.45;15.43;;;;;;;14.74;100.00;101834.41;5094715;28;20036;-86
2023/10/09 06:49:33;;;;;;;32.22;16.75;;;;;;;14.78;100.00;101827.44;5092396;28;20020;-87
2023/10/09 06:52:13;;;;;;;27.83;16.42;;;;;;;14.79;100.00;101825.56;5092858;28;20089;-87
2023/10/09 06:54:40;;;;;;;28.90;15.73;;;;;;;14.80;100.00;101827.22;5078371;28;20082;-87
2023/10/09 06:57:14;;;;;;;27.60;15.53;;;;;;;14.80;100.00;101824.50;5076436;28;20460;-87
2023/10/09 06:59:45;;;;;;;27.67;14.90;;;;;;;14.80;100.00;101806.19;5092808;28;20119;-86
2023/10/09 07:02:26;;;;;;;23.25;15.48;;;;;;;14.84;100.00;101809.34;5092669;28;20039;-86
2023/10/09 07:04:54;;;;;;;30.67;16.20;;;;;;;14.90;100.00;101798.34;5092718;28;20040;-87
2023/10/09 07:07:24;;;;;;;29.80;15.95;;;;;;;14.93;100.00;101788.06;5092161;28;20043;-87
2023/10/09 07:12:42;;;;;;;30.98;15.38;;;;;;;14.97;100.00;101781.94;5094362;28;20438;-87
2023/10/09 07:20:15;;;;;;;30.70;15.40;;;;;;;15.05;100.00;101750.75;5093482;28;20097;-87
2023/10/09 07:22:53;;;;;;;26.48;15.82;;;;;;;15.13;100.00;101768.75;5077065;28;20043;-87
2023/10/09 07:28:18;;;;;;;28.30;15.93;;;;;;;15.19;100.00;101773.31;5094377;28;20043;-87
2023/10/09 07:30:44;;;;;;;26.48;14.77;;;;;;;15.21;100.00;101780.25;5092717;28;20024;-87
2023/10/09 07:38:20;;;;;;;23.98;15.23;;;;;;;15.24;100.00;101839.94;5093750;28;20105;-87
2023/10/09 07:46:51;;;;;;;27.35;15.00;;;;;;;15.31;100.00;101852.72;5097921;28;20040;-87
2023/10/09 07:49:24;;;;;;;27.88;15.95;;;;;;;15.33;100.00;101865.09;5113402;28;20024;-87
2023/10/09 07:51:52;;;;;;;26.33;15.23;;;;;;;15.38;100.00;101859.81;5096599;28;20377;-87
2023/10/09 07:54:31;;;;;;;27.00;15.63;;;;;;;15.41;100.00;101842.13;5096498;28;20032;-87
2023/10/09 07:57:08;;;;;;;28.98;15.45;;;;;;;15.42;100.00;101825.47;5096276;28;20115;-87
2023/10/09 07:59:41;;;;;;;27.30;15.77;;;;;;;15.43;100.00;101813.50;5097785;28;20047;-87
2023/10/09 08:02:13;;;;;;;25.90;16.10;;;;;;;15.46;100.00;101819.56;5096292;28;20486;-87
2023/10/09 08:04:49;;;;;;;28.20;15.35;;;;;;;15.52;100.00;101824.97;5095999;28;20028;-87
2023/10/09 08:07:25;;;;;;;25.77;15.67;;;;;;;15.60;100.00;101829.31;5080075;28;20055;-87
2023/10/09 08:17:58;;;;;;;26.60;16.08;;;;;;;15.85;100.00;101826.56;5096823;28;20067;-88
2023/10/09 08:20:36;;;;;;;28.90;15.47;;;;;;;15.96;100.00;101834.03;5095982;28;20387;-87
2023/10/09 08:23:04;;;;;;;26.25;15.43;;;;;;;16.10;100.00;101834.72;5097783;28;20067;-88
2023/10/09 08:25:33;;;;;;;29.70;16.55;;;;;;;16.19;100.00;101842.63;5095551;28;20097;-87
2023/10/09 08:30:48;;;;;;;26.35;16.00;;;;;;;16.37;100.00;101828.94;5097048;28;20518;-87
2023/10/09 08:35:55;;;;;;;27.77;15.27;;;;;;;16.62;100.00;101811.53;5096418;28;20373;-88
2023/10/09 08:38:24;;;;;;;26.05;16.70;;;;;;;16.76;100.00;101821.22;5095332;28;20516;-87
2023/10/09 08:40:54;;;;;;;24.08;15.02;;;;;;;16.83;100.00;101815.66;5095414;28;20464;-87
2023/10/09 08:43:21;;;;;;;30.35;15.57;;;;;;;16.85;100.00;101810.78;5095280;28;20035;-87
2023/10/09 08:45:51;;;;;;;28.13;15.13;;;;;;;16.86;100.00;101822.56;5096650;28;20112;-87
2023/10/09 08:48:39;;;;;;;23.08;14.65;;;;;;;16.87;100.00;101807.78;5095670;28;20499;-87
2023/10/09 08:51:14;;;;;;;24.38;16.50;;;;;;;16.87;100.00;101819.63;5093301;28;20043;-88
2023/10/09 08:53:43;;;;;;;26.20;15.85;;;;;;;16.88;100.00;101815.81;5095260;28;20198;-87
2023/10/09 08:56:10;;;;;;;23.90;15.23;;;;;;;16.95;100.00;101805.59;5095009;28;20020;-87
2023/10/09 08:58:40;;;;;;;27.20;14.50;;;;;;;17.04;100.00;101805.22;5095056;28;20108;-87
2023/10/09 09:01:06;;;;;;;26.67;16.17;;;;;;;17.23;100.00;101811.47;5095070;28;20024;-87
2023/10/09 09:03:44;;;;;;;27.40;16.08;;;;;;;17.30;100.00;101813.03;5094818;28;20110;-87
2023/10/09 09:06:14;;;;;;;30.13;17.03;;;;;;;17.38;100.00;101811.00;5094316;28;20032;-88
2023/10/09 09:08:54;;;;;;;26.10;17.02;;;;;;;17.38;100.00;101821.97;5096464;28;20115;-87
2023/10/09 09:11:23;;;;;;;28.13;16.52;;;;;;;17.39;100.00;101813.53;5094865;28;20028;-87
2023/10/09 09:14:18;;;;;;;28.77;16.35;;;;;;;17.48;100.00;101824.94;5094759;28;20067;-87
2023/10/09 09:16:48;;;;;;;26.08;16.15;;;;;;;17.57;100.00;101826.28;5095224;28;20032;-88
2023/10/09 09:19:20;;;;;;;27.27;16.57;;;;;;;17.69;100.00;101820.81;5078401;28;20081;-88
2023/10/09 09:21:54;;;;;;;30.00;16.35;;;;;;;17.86;100.00;101840.97;5078812;28;20085;-87
2023/10/09 09:24:26;;;;;;;26.38;15.95;;;;;;;18.10;100.00;101853.84;5078150;28;20036;-88
2023/10/09 09:27:09;;;;;;;24.92;16.25;;;;;;;18.35;100.00;101850.78;5094605;28;20063;-87
2023/10/09 09:29:52;;;;;;;25.73;15.48;;;;;;;18.54;100.00;101865.19;5094983;28;20050;-87
2023/10/09 09:33:15;;;;;;;24.17;15.13;;;;;;;18.48;100.00;101855.16;5094846;28;20020;-87
2023/10/09 09:35:37;;;;;;;26.10;15.82;;;;;;;18.62;100.00;101869.47;5094653;28;20032;-88
2023/10/09 09:38:06;;;;;;;23.80;15.17;;;;;;;18.78;100.00;101863.19;5094610;28;20034;-87
2023/10/09 09:40:41;;;;;;;27.00;15.33;;;;;;;18.84;100.00;101872.34;5094594;28;20284;-87
2023/10/09 09:43:22;;;;;;;27.65;15.30;;;;;;;18.81;100.00;101868.19;5094488;28;20035;-87
2023/10/09 09:45:56;;;;;;;27.90;15.80;;;;;;;18.99;100.00;101871.84;5094344;28;20028;-88
2023/10/09 09:48:24;;;;;;;28.75;15.57;;;;;;;19.11;100.00;101878.94;5094241;28;20130;-88
2023/10/09 09:50:54;;;;;;;24.27;15.52;;;;;;;19.14;100.00;101879.53;5078067;28;20114;-88
2023/10/09 09:53:23;;;;;;;33.63;16.17;;;;;;;19.17;100.00;101887.31;5077073;28;20036;-87
2023/10/09 09:55:57;;;;;;;30.92;16.77;;;;;;;19.16;100.00;101880.13;5077786;28;20032;-88
2023/10/09 09:58:24;;;;;;;31.33;17.23;;;;;;;19.14;100.00;101882.28;5094090;28;20028;-88
2023/10/09 10:00:54;;;;;;;29.20;16.77;;;;;;;19.09;100.00;101883.88;5093598;28;20559;-87
2023/10/09 10:03:25;;;;;;;27.35;16.92;;;;;;;19.15;100.00;101884.78;5092683;28;20213;-87
2023/10/09 10:05:52;;;;;;;29.40;17.30;;;;;;;19.19;100.00;101885.97;5093552;28;20080;-87
2023/10/09 10:08:30;;;;;;;28.33;18.40;;;;;;;19.30;100.00;101886.16;5076834;28;20036;-88
2023/10/09 10:10:58;;;;;;;31.02;18.10;;;;;;;19.35;99.96;101876.03;5094257;28;20028;-88
2023/10/09 10:13:41;;;;;;;32.22;17.52;;;;;;;19.51;100.00;101890.91;5094917;28;20031;-88
2023/10/09 10:16:20;;;;;;;31.95;18.15;;;;;;;19.67;100.00;101891.97;5093508;28;20040;-88
2023/10/09 10:19:06;;;;;;;29.67;17.90;;;;;;;19.73;98.89;101913.00;5093641;28;20032;-87
2023/10/09 10:21:42;;;;;;;31.92;18.85;;;;;;;19.72;98.94;101888.47;5093648;28;20494;-88
2023/10/09 10:24:32;;;;;;;30.63;18.80;;;;;;;19.68;99.15;101892.81;5077609;28;20065;-88
2023/10/09 10:27:18;;;;;;;29.05;19.15;;;;;;;19.60;99.61;101889.38;5094715;28;20048;-88
2023/10/09 10:29:50;;;;;;;33.78;18.73;;;;;;;19.76;99.01;101889.63;5093068;28;20035;-87
2023/10/09 10:32:20;;;;;;;30.20;19.43;;;;;;;19.72;98.48;101892.03;5077355;28;20038;-88
2023/10/09 10:34:55;;;;;;;31.85;18.67;;;;;;;19.85;99.30;101887.31;5093935;28;20052;-88
2023/10/09 10:37:43;;;;;;;29.20;18.58;;;;;;;20.08;98.77;101891.81;5092706;28;20483;-87
2023/10/09 10:40:37;;;;;;;29.90;18.33;;;;;;;20.04;98.76;101882.38;5093487;28;20028;-88
2023/10/09 10:43:31;;;;;;;37.80;19.52;;;;;;;20.21;97.69;101882.31;5092518;28;20054;-88
2023/10/09 10:46:23;;;;;;;36.50;19.30;;;;;;;20.36;97.59;101884.44;5093239;28;20024;-88
2023/10/09 10:48:59;;;;;;;29.90;19.17;;;;;;;20.39;96.84;101870.97;5110236;28;20032;-88
2023/10/09 10:51:40;;;;;;;32.30;19.77;;;;;;;20.27;96.82;101873.00;5094590;28;20060;-88
2023/10/09 10:56:57;;;;;;;27.60;19.60;;;;;;;20.56;96.64;101870.88;5094196;28;20130;-88
2023/10/09 10:59:24;;;;;;;30.53;19.17;;;;;;;20.64;95.61;101873.22;5092823;28;20024;-88
2023/10/09 11:01:55;;;;;;;34.15;19.30;;;;;;;20.79;95.39;101880.84;5092847;28;20044;-87
2023/10/09 11:04:43;;;;;;;27.23;18.83;;;;;;;20.72;94.49;101876.63;5092760;28;20020;-87
2023/10/09 11:07:24;;;;;;;33.20;19.05;;;;;;;21.07;94.35;101891.88;5092381;28;20052;-88
2023/10/09 11:12:45;;;;;;;30.27;18.23;;;;;;;21.26;92.05;101881.28;5093940;28;20066;-88
2023/10/09 11:18:05;;;;;;;28.08;18.10;;;;;;;21.62;91.88;101890.72;5093945;28;20032;-88
2023/10/09 11:20:33;;;;;;;30.33;18.27;;;;;;;22.12;88.62;101879.44;5092655;28;20031;-87
2023/10/09 11:25:52;;;;;;;28.67;17.37;;;;;;;22.76;84.15;101893.00;5093566;28;20051;-88
2023/10/09 11:28:42;;;;;;;28.77;17.58;;;;;;;22.92;83.45;101876.44;5092382;28;20036;-88
2023/10/09 11:31:14;;;;;;;28.67;16.58;;;;;;;23.11;82.10;101879.53;5092584;28;20024;-87
2023/10/09 11:34:03;;;;;;;24.83;14.50;;;;;;;22.97;82.00;101876.41;5092351;28;20078;-88
2023/10/09 11:36:34;;;;;;;22.95;14.63;;;;;;;22.53;83.59;101874.94;5092231;28;20152;-88
2023/10/09 11:39:20;;;;;;;24.83;13.47;;;;;;;22.60;83.34;101866.38;5092428;28;20123;-87
2023/10/09 11:41:49;;;;;;;28.05;14.35;;;;;;;23.20;81.08;101864.03;5077836;28;20081;-88
2023/10/09 11:44:24;;;;;;;22.45;14.02;;;;;;;23.88;77.50;101862.88;5092183;28;20032;-88
2023/10/09 11:47:22;;;;;;;19.15;13.25;;;;;;;24.22;77.44;101872.47;5092728;28;20456;-87
2023/10/09 11:50:12;;;;;;;24.55;13.75;;;;;;;24.28;75.22;101863.84;5091972;28;20471;-88
2023/10/09 11:55:40;;;;;;;18.98;12.35;;;;;;;24.50;73.79;101869.00;5093473;28;20097;-88
2023/10/09 11:58:06;;;;;;;21.33;12.13;;;;;;;24.55;72.17;101861.78;5076005;28;20455;-88
2023/10/09 12:00:44;;;;;;;17.10;11.48;;;;;;;24.63;71.90;101872.31;5092262;28;20036;-88
2023/10/09 12:03:09;;;;;;;19.38;12.52;;;;;;;24.51;72.20;101872.63;5077053;28;20028;-88
2023/10/09 12:05:35;;;;;;;20.17;11.57;;;;;;;24.18;72.71;101888.84;5074772;28;20043;-89
2023/10/09 12:08:02;;;;;;;20.47;11.50;;;;;;;23.81;75.29;101882.56;5092568;28;20503;-88
2023/10/09 12:10:29;;;;;;;16.30;9.90;;;;;;;23.60;76.14;101865.09;5091865;28;20036;-88
2023/10/09 12:12:58;;;;;;;16.47;10.17;;;;;;;23.77;76.28;101867.59;5075237;28;20120;-88
2023/10/09 12:15:24;;;;;;;17.58;10.93;;;;;;;23.99;75.64;101871.97;5091873;28;20036;-87
2023/10/09 12:17:53;;;;;;;17.75;9.68;;;;;;;23.92;76.40;101860.38;5092954;28;20036;-88
2023/10/09 12:20:34;;;;;;;17.27;9.80;;;;;;;23.83;76.83;101873.97;5091992;28;20036;-88
2023/10/09 12:23:00;;;;;;;16.75;9.38;;;;;;;23.48;76.80;101870.94;5091878;28;20028;-88
2023/10/09 12:25:31;;;;;;;19.73;9.97;;;;;;;23.41;77.19;101881.47;5091631;28;20021;-88
2023/10/09 12:28:01;;;;;;;19.60;9.15;;;;;;;23.38;77.35;101857.09;5095629;28;20174;-88
2023/10/09 12:30:27;;;;;;;17.88;9.43;;;;;;;23.43;76.81;101851.56;5095648;28;20391;-88
2023/10/09 12:32:58;;;;;;;16.27;9.05;;;;;;;23.59;76.91;101855.16;5095650;28;20032;-88
2023/10/09 12:35:33;;;;;;;16.48;9.02;;;;;;;23.82;76.68;101844.56;5096737;28;20376;-88
2023/10/09 12:38:02;;;;;;;17.30;8.97;;;;;;;23.98;76.02;101854.53;5078493;28;20028;-88
2023/10/09 12:40:39;;;;;;;15.40;8.20;;;;;;;24.03;75.86;101850.09;5078625;28;20490;-87
2023/10/09 12:43:17;;;;;;;14.98;7.65;;;;;;;24.17;75.54;101848.38;5095374;28;20028;-88
2023/10/09 12:45:42;;;;;;;20.13;8.95;;;;;;;24.11;73.27;101853.13;5112257;28;20032;-88
2023/10/09 12:48:13;;;;;;;18.30;7.97;;;;;;;23.91;74.22;101839.31;5094787;28;20043;-87
2023/10/09 12:50:44;;;;;;;16.17;7.65;;;;;;;23.94;75.34;101835.97;5079295;28;20038;-88
2023/10/09 12:53:17;;;;;;;11.38;7.18;;;;;;;24.23;73.20;101838.09;5096778;28;20109;-88
2023/10/09 12:55:43;;;;;;;15.48;7.70;;;;;;;24.28;73.52;101826.97;5079591;28;20464;-88
2023/10/09 12:58:14;;;;;;;17.80;8.00;;;;;;;24.17;74.47;101826.22;5093782;28;20036;-88
2023/10/09 13:00:44;;;;;;;13.75;7.63;;;;;;;24.45;74.14;101819.13;5094956;28;20047;-88
2023/10/09 13:03:16;;;;;;;12.68;7.68;;;;;;;24.61;72.45;101810.72;5078780;28;20032;-88
2023/10/09 13:05:56;;;;;;;13.88;7.72;;;;;;;24.36;73.67;101804.22;5078222;28;20078;-88
2023/10/09 13:08:34;;;;;;;15.35;7.63;;;;;;;24.42;73.58;101811.38;5095354;28;20028;-88
2023/10/09 13:11:16;;;;;;;16.57;7.43;;;;;;;24.72;72.70;101814.28;5094797;28;20054;-88
2023/10/09 13:13:43;;;;;;;15.90;7.20;;;;;;;24.97;71.36;101802.97;5095065;28;20074;-89
2023/10/09 13:16:23;;;;;;;17.05;8.15;;;;;;;25.01;71.77;101811.56;5094987;28;20105;-88
2023/10/09 13:18:51;;;;;;;17.13;7.90;;;;;;;24.94;71.30;101817.44;5096080;28;20042;-88
2023/10/09 13:21:27;;;;;;;13.50;7.70;;;;;;;24.93;71.12;101804.66;5094537;28;20046;-88
2023/10/09 13:24:03;;;;;;;17.93;8.17;;;;;;;24.51;72.09;101809.66;5094931;28;20028;-89
2023/10/09 13:26:34;;;;;;;15.18;7.63;;;;;;;24.30;72.58;101814.50;5094334;28;20043;-88
2023/10/09 13:29:03;;;;;;;14.32;7.60;;;;;;;24.35;74.03;101817.22;5111426;28;20130;-88
2023/10/09 13:31:33;;;;;;;13.93;8.07;;;;;;;24.55;72.66;101818.22;5077724;28;20042;-88
2023/10/09 13:34:03;;;;;;;15.88;7.82;;;;;;;24.78;71.66;101830.59;5094052;28;20036;-88
2023/10/09 13:36:31;;;;;;;13.73;7.80;;;;;;;25.25;70.09;101824.69;5095190;28;20024;-89
2023/10/09 13:39:19;;;;;;;14.52;8.70;;;;;;;25.56;69.36;101817.75;5077863;28;20039;-88
2023/10/09 13:41:48;;;;;;;12.60;8.05;;;;;;;26.45;66.20;101821.13;5094515;28;20050;-89